Time;durP1;ratioP1;P1;durP2;ratioP2;P2;SDS_P1;SDS_P2;PMS_P1;PMS_P2;Temp;Humidity;BMP_temperature;BMP_pressure;BME280_temperature;BME280_humidity;BME280_pressure;Samples;Min_cycle;Max_cycle;Signal;HPM_P1;HPM_P2
2021/12/18 00:01:41;;;;;;;22.48;16.88;;;;;;;;;;4947490;28;20114;-65
2021/12/18 00:04:27;;;;;;;27.08;18.23;;;;;;;;;;4954809;28;20035;-63
2021/12/18 00:07:12;;;;;;;26.02;16.48;;;;;;;;;;4965535;28;20134;-63
2021/12/18 00:09:57;;;;;;;22.67;16.85;;;;;;;;;;4962488;28;20023;-68
2021/12/18 00:12:48;;;;;;;24.48;16.75;;;;;;;;;;4937676;28;20394;-69
2021/12/18 00:15:33;;;;;;;23.30;16.52;;;;;;;;;;4951957;28;20039;-66
2021/12/18 00:18:29;;;;;;;22.77;17.42;;;;;;;;;;4960873;23;20219;-67
2021/12/18 00:21:17;;;;;;;28.83;19.10;;;;;;;;;;4800281;29;20405;-67
2021/12/18 00:25:45;;;;;;;27.90;20.48;;;;;;;;;;5057547;28;20497;-66
2021/12/18 00:28:30;;;;;;;26.33;20.48;;;;;;;;;;5052055;28;20044;-68
2021/12/18 00:31:15;;;;;;;24.48;19.85;;;;;;;;;;5044697;28;20037;-62
2021/12/18 00:34:01;;;;;;;24.35;18.23;;;;;;;;;;5054568;28;20384;-61
2021/12/18 00:36:46;;;;;;;23.50;18.50;;;;;;;;;;5036976;28;20106;-61
2021/12/18 00:39:33;;;;;;;25.60;19.23;;;;;;;;;;5030539;28;20029;-63
2021/12/18 00:45:08;;;;;;;24.90;18.63;;;;;;;;;;5062509;28;20034;-65
2021/12/18 00:47:53;;;;;;;24.17;18.10;;;;;;;;;;5046289;28;20531;-62
2021/12/18 00:50:38;;;;;;;25.58;19.45;;;;;;;;;;5041598;28;20049;-65
2021/12/18 00:53:24;;;;;;;25.30;18.85;;;;;;;;;;5023276;28;20574;-67
2021/12/18 00:56:09;;;;;;;23.05;18.08;;;;;;;;;;5036437;28;20078;-69
2021/12/18 00:58:54;;;;;;;23.20;17.10;;;;;;;;;;5063411;28;20036;-68
2021/12/18 01:01:39;;;;;;;23.70;17.27;;;;;;;;;;5051468;28;20119;-68
2021/12/18 01:04:26;;;;;;;24.92;18.52;;;;;;;;;;5057713;28;20041;-64
2021/12/18 01:07:11;;;;;;;22.88;18.25;;;;;;;;;;5023814;28;20025;-66
2021/12/18 01:12:45;;;;;;;26.77;19.38;;;;;;;;;;5024368;28;20093;-64
2021/12/18 01:15:34;;;;;;;24.55;19.75;;;;;;;;;;5023588;28;20022;-64
2021/12/18 01:24:28;;;;;;;24.02;18.52;;;;;;;;;;5028763;28;20030;-65
2021/12/18 01:27:13;;;;;;;26.08;18.60;;;;;;;;;;5034964;28;20037;-68
2021/12/18 01:29:59;;;;;;;23.20;18.48;;;;;;;;;;5054682;28;20440;-68
2021/12/18 01:32:44;;;;;;;23.13;18.65;;;;;;;;;;5037969;28;20040;-68
2021/12/18 01:35:29;;;;;;;23.95;17.58;;;;;;;;;;5041140;28;20060;-68
2021/12/18 01:38:15;;;;;;;25.55;19.40;;;;;;;;;;5032048;28;20030;-68
2021/12/18 01:41:02;;;;;;;24.85;18.05;;;;;;;;;;5011678;28;20245;-69
2021/12/18 01:52:33;;;;;;;24.95;18.73;;;;;;;;;;5017422;28;20109;-70
2021/12/18 01:55:19;;;;;;;22.42;17.35;;;;;;;;;;5022858;28;20022;-69
2021/12/18 01:58:05;;;;;;;23.70;18.52;;;;;;;;;;5031369;28;20054;-68
2021/12/18 02:00:52;;;;;;;25.05;19.40;;;;;;;;;;5017379;28;20018;-67
2021/12/18 02:03:38;;;;;;;25.35;18.83;;;;;;;;;;5019421;28;20484;-69
2021/12/18 02:06:24;;;;;;;25.10;20.08;;;;;;;;;;5018806;28;20030;-69
2021/12/18 02:09:09;;;;;;;24.63;19.23;;;;;;;;;;5049546;28;20041;-70
2021/12/18 02:11:54;;;;;;;24.33;18.92;;;;;;;;;;5003696;28;20034;-71
2021/12/18 02:20:49;;;;;;;24.92;19.05;;;;;;;;;;5032344;28;20030;-63
2021/12/18 02:23:36;;;;;;;25.00;19.17;;;;;;;;;;5021898;28;20072;-64
2021/12/18 02:26:23;;;;;;;26.92;19.42;;;;;;;;;;5060967;28;20009;-62
2021/12/18 02:29:12;;;;;;;26.52;20.48;;;;;;;;;;5022381;28;20052;-61
2021/12/18 02:31:57;;;;;;;;;;;;;;;;;;5010545;28;20041;-62
2021/12/18 02:34:51;;;;;;;24.95;19.02;;;;;;;;;;5020057;28;20364;-65
2021/12/18 02:37:40;;;;;;;27.05;20.08;;;;;;;;;;5009677;28;20030;-62
2021/12/18 02:43:38;;;;;;;28.65;20.25;;;;;;;;;;5021186;28;20068;-64
2021/12/18 02:46:24;;;;;;;26.92;20.52;;;;;;;;;;5004695;28;20049;-67
2021/12/18 02:49:10;;;;;;;27.60;21.35;;;;;;;;;;4997866;28;20477;-67
2021/12/18 02:51:55;;;;;;;27.92;18.90;;;;;;;;;;5034647;28;20408;-64
2021/12/18 02:54:41;;;;;;;26.33;20.25;;;;;;;;;;5010087;28;20436;-68
2021/12/18 02:57:27;;;;;;;26.75;19.85;;;;;;;;;;5018569;28;20029;-62
2021/12/18 03:00:12;;;;;;;25.63;20.08;;;;;;;;;;5025435;28;20658;-64
2021/12/18 03:03:04;;;;;;;25.25;18.67;;;;;;;;;;5008261;28;20069;-65
2021/12/18 03:06:02;;;;;;;26.40;19.88;;;;;;;;;;4994862;28;20045;-63
2021/12/18 03:24:08;;;;;;;26.02;19.27;;;;;;;;;;5019127;28;20492;-69
2021/12/18 03:26:53;;;;;;;29.88;19.60;;;;;;;;;;5015778;28;20042;-68
2021/12/18 03:29:39;;;;;;;26.77;18.90;;;;;;;;;;5024800;28;20089;-69
2021/12/18 03:32:24;;;;;;;29.73;21.45;;;;;;;;;;5017092;28;20048;-66
2021/12/18 03:35:10;;;;;;;30.70;21.35;;;;;;;;;;5007637;28;20036;-67
2021/12/18 03:37:56;;;;;;;29.50;21.05;;;;;;;;;;5007128;28;20039;-70
2021/12/18 03:40:41;;;;;;;32.28;21.58;;;;;;;;;;5017001;28;20033;-69
2021/12/18 03:43:26;;;;;;;29.58;22.40;;;;;;;;;;5011879;28;20459;-68
2021/12/18 03:46:12;;;;;;;30.45;19.85;;;;;;;;;;5040503;28;20019;-68
2021/12/18 03:48:57;;;;;;;26.08;18.70;;;;;;;;;;5014046;28;20029;-71
2021/12/18 03:51:42;;;;;;;28.45;19.75;;;;;;;;;;5015188;28;20579;-68
2021/12/18 03:54:27;;;;;;;28.15;20.77;;;;;;;;;;5013602;28;20022;-70
2021/12/18 03:57:13;;;;;;;30.60;20.67;;;;;;;;;;5015673;28;20045;-69
2021/12/18 03:59:58;;;;;;;29.02;20.52;;;;;;;;;;5029079;28;20024;-68
2021/12/18 04:02:43;;;;;;;26.08;19.48;;;;;;;;;;5025451;28;20064;-69
2021/12/18 04:05:29;;;;;;;26.95;20.00;;;;;;;;;;5035523;28;20145;-70
2021/12/18 04:08:14;;;;;;;28.05;20.40;;;;;;;;;;5016946;28;20026;-71
2021/12/18 04:10:59;;;;;;;29.92;21.10;;;;;;;;;;5018956;28;20380;-64
2021/12/18 04:13:46;;;;;;;28.67;20.10;;;;;;;;;;5008484;28;20081;-64
2021/12/18 04:16:32;;;;;;;27.73;18.67;;;;;;;;;;5006341;28;20275;-63
2021/12/18 04:19:18;;;;;;;25.75;18.10;;;;;;;;;;5023534;28;20033;-65
2021/12/18 04:22:04;;;;;;;26.25;18.52;;;;;;;;;;5018955;28;20473;-61
2021/12/18 04:24:49;;;;;;;29.17;17.83;;;;;;;;;;5017051;28;20101;-62
2021/12/18 04:27:34;;;;;;;30.73;19.75;;;;;;;;;;5011721;28;20067;-65
2021/12/18 04:30:20;;;;;;;29.05;20.70;;;;;;;;;;5008098;28;20032;-66
2021/12/18 04:33:05;;;;;;;26.65;18.75;;;;;;;;;;5005723;28;20036;-64
2021/12/18 04:35:50;;;;;;;26.50;18.17;;;;;;;;;;5009574;28;20392;-66
2021/12/18 04:38:35;;;;;;;29.55;20.55;;;;;;;;;;5012571;28;20049;-65
2021/12/18 04:41:23;;;;;;;28.88;20.77;;;;;;;;;;5019937;28;20035;-68
2021/12/18 04:44:09;;;;;;;26.48;18.23;;;;;;;;;;5024604;28;20045;-67
2021/12/18 04:46:54;;;;;;;26.60;17.20;;;;;;;;;;5010531;28;20034;-70
2021/12/18 04:49:39;;;;;;;29.48;19.90;;;;;;;;;;5021677;28;20030;-67
2021/12/18 04:52:25;;;;;;;28.20;18.42;;;;;;;;;;5014777;28;20100;-67
2021/12/18 04:55:10;;;;;;;29.33;19.10;;;;;;;;;;5025546;28;20029;-67
2021/12/18 04:57:55;;;;;;;28.15;18.70;;;;;;;;;;5007115;28;20022;-67
2021/12/18 05:00:46;;;;;;;28.52;18.85;;;;;;;;;;5000155;28;20061;-68
2021/12/18 05:03:32;;;;;;;25.83;16.92;;;;;;;;;;5000841;28;20077;-62
2021/12/18 05:06:17;;;;;;;30.75;19.77;;;;;;;;;;5005994;28;20342;-63
2021/12/18 05:09:03;;;;;;;26.58;17.75;;;;;;;;;;5021414;28;20072;-62
2021/12/18 05:11:49;;;;;;;29.42;18.33;;;;;;;;;;4993693;28;20117;-63
2021/12/18 05:14:34;;;;;;;31.42;18.55;;;;;;;;;;5022545;28;20029;-63
2021/12/18 05:17:20;;;;;;;27.60;18.02;;;;;;;;;;5017394;28;20028;-63
2021/12/18 05:20:06;;;;;;;28.70;18.63;;;;;;;;;;5016858;28;20082;-63
2021/12/18 05:22:51;;;;;;;27.60;17.15;;;;;;;;;;5011358;28;20025;-70
2021/12/18 05:25:36;;;;;;;28.40;18.17;;;;;;;;;;5015003;28;20088;-65
2021/12/18 05:28:21;;;;;;;27.73;16.85;;;;;;;;;;5003770;28;20026;-64
2021/12/18 05:31:09;;;;;;;29.63;19.45;;;;;;;;;;5025979;28;20033;-62
2021/12/18 05:33:59;;;;;;;28.08;16.77;;;;;;;;;;5013256;28;20018;-64
2021/12/18 05:39:41;;;;;;;42.55;26.67;;;;;;;;;;5008596;28;20034;-68
2021/12/18 05:42:27;;;;;;;30.85;20.65;;;;;;;;;;5012842;28;20025;-63
2021/12/18 05:45:12;;;;;;;25.77;17.55;;;;;;;;;;5014095;28;20445;-62
2021/12/18 05:47:57;;;;;;;25.80;16.92;;;;;;;;;;5020677;28;20026;-63
2021/12/18 05:50:45;;;;;;;25.75;16.10;;;;;;;;;;5025932;28;20040;-63
2021/12/18 05:53:31;;;;;;;25.83;16.83;;;;;;;;;;5015731;28;20038;-62
2021/12/18 05:56:16;;;;;;;29.52;16.15;;;;;;;;;;5030372;28;20083;-63
2021/12/18 05:59:01;;;;;;;21.63;14.10;;;;;;;;;;5004819;28;20466;-66
2021/12/18 06:01:47;;;;;;;27.23;17.38;;;;;;;;;;5018106;28;20030;-65
2021/12/18 06:04:32;;;;;;;25.13;16.85;;;;;;;;;;5001262;28;20034;-68
2021/12/18 06:07:29;;;;;;;26.55;17.70;;;;;;;;;;5035738;28;20428;-67
2021/12/18 06:10:14;;;;;;;57.58;38.83;;;;;;;;;;5024581;28;20064;-67
2021/12/18 06:13:02;;;;;;;32.03;20.05;;;;;;;;;;5020048;28;20034;-68
2021/12/18 06:15:47;;;;;;;27.95;18.08;;;;;;;;;;5002291;28;20505;-68
2021/12/18 06:18:36;;;;;;;25.95;17.48;;;;;;;;;;5020919;28;20045;-67
2021/12/18 06:21:22;;;;;;;27.63;18.27;;;;;;;;;;5036481;28;20018;-69
2021/12/18 06:24:07;;;;;;;28.05;18.63;;;;;;;;;;5005863;28;20030;-69
2021/12/18 06:26:52;;;;;;;23.73;16.10;;;;;;;;;;5001449;28;20425;-68
2021/12/18 06:29:39;;;;;;;26.20;16.98;;;;;;;;;;5021877;28;20034;-71
2021/12/18 06:32:24;;;;;;;27.70;17.20;;;;;;;;;;5010668;28;20032;-72
2021/12/18 06:35:10;;;;;;;27.10;16.67;;;;;;;;;;5008305;28;20022;-70
2021/12/18 06:37:55;;;;;;;23.63;15.60;;;;;;;;;;5019719;28;20057;-62
2021/12/18 06:40:40;;;;;;;22.85;15.70;;;;;;;;;;5010967;28;20303;-63
2021/12/18 06:43:26;;;;;;;24.08;15.38;;;;;;;;;;5012766;28;20080;-63
2021/12/18 06:46:11;;;;;;;26.35;17.38;;;;;;;;;;5021847;28;20064;-67
2021/12/18 06:48:56;;;;;;;27.35;17.65;;;;;;;;;;5016495;28;20417;-67
2021/12/18 06:51:41;;;;;;;27.63;17.05;;;;;;;;;;5020237;28;20040;-67
2021/12/18 06:54:27;;;;;;;23.13;15.20;;;;;;;;;;5002185;28;20092;-68
2021/12/18 06:57:12;;;;;;;23.80;14.95;;;;;;;;;;5022800;28;20408;-63
2021/12/18 06:59:57;;;;;;;19.58;12.52;;;;;;;;;;5009842;28;20028;-63
2021/12/18 07:02:42;;;;;;;21.50;12.68;;;;;;;;;;5008082;28;20114;-67
2021/12/18 07:05:28;;;;;;;22.27;13.90;;;;;;;;;;5004161;28;20030;-65
2021/12/18 07:08:13;;;;;;;20.27;13.15;;;;;;;;;;5012685;28;20049;-65
2021/12/18 07:10:59;;;;;;;20.65;13.63;;;;;;;;;;5004820;28;20038;-66
2021/12/18 07:13:44;;;;;;;21.52;13.90;;;;;;;;;;5046292;28;20014;-66
2021/12/18 07:16:29;;;;;;;22.77;13.88;;;;;;;;;;5013278;28;20041;-62
2021/12/18 07:19:15;;;;;;;19.55;12.93;;;;;;;;;;5017935;28;20018;-65
2021/12/18 07:22:00;;;;;;;20.45;13.32;;;;;;;;;;5012074;28;20041;-64
2021/12/18 07:24:46;;;;;;;18.35;12.48;;;;;;;;;;4999213;28;20084;-63
2021/12/18 07:27:32;;;;;;;20.70;12.90;;;;;;;;;;5010848;28;20026;-64
2021/12/18 07:30:17;;;;;;;18.88;12.50;;;;;;;;;;4991717;28;20022;-66
2021/12/18 07:33:09;;;;;;;20.83;12.75;;;;;;;;;;5004821;28;20021;-72
2021/12/18 07:35:55;;;;;;;20.85;12.70;;;;;;;;;;5019747;28;20057;-69
2021/12/18 07:38:40;;;;;;;18.58;12.20;;;;;;;;;;5028364;28;20477;-71
2021/12/18 07:41:26;;;;;;;22.33;13.88;;;;;;;;;;5008666;28;20025;-71
2021/12/18 07:44:11;;;;;;;19.58;12.52;;;;;;;;;;5025762;28;20030;-73
2021/12/18 07:46:56;;;;;;;23.02;14.40;;;;;;;;;;5039741;28;20125;-69
2021/12/18 07:49:41;;;;;;;20.83;12.25;;;;;;;;;;5004217;28;20034;-71
2021/12/18 07:52:27;;;;;;;21.52;12.70;;;;;;;;;;5022865;28;20026;-70
2021/12/18 07:55:12;;;;;;;19.58;13.55;;;;;;;;;;5034552;28;20477;-72
2021/12/18 07:57:57;;;;;;;24.17;13.00;;;;;;;;;;5024722;28;20366;-72
2021/12/18 08:00:42;;;;;;;20.98;12.68;;;;;;;;;;5015694;28;20095;-71
2021/12/18 08:03:28;;;;;;;22.45;12.85;;;;;;;;;;5010949;28;20036;-70
2021/12/18 08:06:14;;;;;;;22.30;13.13;;;;;;;;;;5013797;28;20029;-71
2021/12/18 08:08:59;;;;;;;18.50;11.57;;;;;;;;;;4999402;28;20188;-69
2021/12/18 08:11:45;;;;;;;25.80;14.98;;;;;;;;;;4999195;28;20057;-70
2021/12/18 08:14:32;;;;;;;21.52;13.50;;;;;;;;;;5025449;28;21569;-70
2021/12/18 08:17:17;;;;;;;22.88;13.95;;;;;;;;;;5022518;28;20033;-70
2021/12/18 08:20:03;;;;;;;23.80;13.38;;;;;;;;;;5022252;28;20389;-69
2021/12/18 08:22:49;;;;;;;23.48;13.40;;;;;;;;;;5017963;28;20042;-70
2021/12/18 08:25:34;;;;;;;20.90;13.15;;;;;;;;;;5032511;28;20141;-72
2021/12/18 08:28:19;;;;;;;22.40;13.25;;;;;;;;;;5011238;28;20021;-69
2021/12/18 08:31:04;;;;;;;20.67;13.85;;;;;;;;;;5009326;28;20121;-70
2021/12/18 08:33:50;;;;;;;25.92;14.75;;;;;;;;;;5017538;28;20079;-71
2021/12/18 08:36:35;;;;;;;19.23;12.05;;;;;;;;;;5025732;28;20401;-69
2021/12/18 08:39:20;;;;;;;25.40;14.50;;;;;;;;;;5008689;28;20038;-70
2021/12/18 08:42:06;;;;;;;23.05;13.48;;;;;;;;;;5020948;28;20503;-67
2021/12/18 08:44:51;;;;;;;23.63;13.38;;;;;;;;;;5002817;28;20099;-71
2021/12/18 08:47:36;;;;;;;23.15;14.00;;;;;;;;;;5030737;28;20404;-68
2021/12/18 08:50:22;;;;;;;21.42;12.48;;;;;;;;;;5018961;28;20021;-67
2021/12/18 08:53:07;;;;;;;24.77;14.70;;;;;;;;;;5034554;28;20103;-64
2021/12/18 08:55:53;;;;;;;23.88;13.13;;;;;;;;;;5022366;28;20030;-68
2021/12/18 08:58:38;;;;;;;22.23;13.35;;;;;;;;;;5018177;28;20021;-68
2021/12/18 09:01:26;;;;;;;25.92;13.73;;;;;;;;;;5011041;28;20104;-67
2021/12/18 09:04:11;;;;;;;24.48;14.88;;;;;;;;;;5009777;28;20519;-66
2021/12/18 09:06:56;;;;;;;23.20;13.73;;;;;;;;;;5027285;28;20038;-70
2021/12/18 09:09:41;;;;;;;22.75;12.82;;;;;;;;;;5021869;28;20030;-70
2021/12/18 09:12:26;;;;;;;24.58;14.65;;;;;;;;;;5004800;28;20480;-70
2021/12/18 09:15:12;;;;;;;22.55;14.32;;;;;;;;;;5013737;28;20028;-70
2021/12/18 09:17:57;;;;;;;21.83;13.38;;;;;;;;;;5032741;28;20029;-70
2021/12/18 09:20:44;;;;;;;26.70;14.88;;;;;;;;;;5030954;28;20118;-69
2021/12/18 09:23:30;;;;;;;20.45;13.32;;;;;;;;;;5030369;28;20055;-66
2021/12/18 09:26:15;;;;;;;24.02;15.55;;;;;;;;;;5021831;28;20041;-66
2021/12/18 09:29:00;;;;;;;24.80;14.23;;;;;;;;;;4999609;28;20045;-66
2021/12/18 09:31:45;;;;;;;24.42;14.48;;;;;;;;;;5023819;28;20437;-66
2021/12/18 09:34:31;;;;;;;26.30;15.05;;;;;;;;;;5017595;28;20041;-66
2021/12/18 09:37:16;;;;;;;22.75;14.75;;;;;;;;;;5026104;28;20030;-64
2021/12/18 09:40:03;;;;;;;21.98;13.05;;;;;;;;;;5013901;28;20037;-67
2021/12/18 09:42:49;;;;;;;21.48;13.80;;;;;;;;;;5025406;28;20040;-73
2021/12/18 09:45:34;;;;;;;26.38;14.52;;;;;;;;;;5013998;28;20035;-69
2021/12/18 09:48:20;;;;;;;22.55;14.23;;;;;;;;;;5021959;28;20057;-71
2021/12/18 09:51:09;;;;;;;25.58;15.57;;;;;;;;;;5009146;28;20514;-70
2021/12/18 09:53:55;;;;;;;24.83;13.75;;;;;;;;;;5004536;28;20069;-70
2021/12/18 09:56:40;;;;;;;22.42;14.35;;;;;;;;;;5023301;28;20033;-70
2021/12/18 09:59:25;;;;;;;21.15;14.35;;;;;;;;;;5015275;28;20037;-64
2021/12/18 10:02:11;;;;;;;23.10;14.25;;;;;;;;;;5029535;28;20025;-67
2021/12/18 10:04:57;;;;;;;23.75;13.30;;;;;;;;;;5015604;28;20547;-68
2021/12/18 10:07:42;;;;;;;21.75;12.65;;;;;;;;;;5018043;28;20060;-69
2021/12/18 10:10:27;;;;;;;21.95;13.77;;;;;;;;;;5024180;28;20084;-69
2021/12/18 10:13:12;;;;;;;20.17;12.82;;;;;;;;;;5006032;28;20491;-71
2021/12/18 10:16:09;;;;;;;21.70;13.82;;;;;;;;;;5038180;28;20025;-67
2021/12/18 10:18:55;;;;;;;22.35;13.35;;;;;;;;;;5038538;28;20184;-69
2021/12/18 10:21:52;;;;;;;19.83;12.13;;;;;;;;;;4992519;28;20023;-70
2021/12/18 10:24:42;;;;;;;23.10;13.38;;;;;;;;;;5024976;28;20537;-69
2021/12/18 10:27:27;;;;;;;21.15;12.93;;;;;;;;;;5018449;28;20029;-69
2021/12/18 10:30:16;;;;;;;19.65;12.00;;;;;;;;;;4991866;28;20035;-69
2021/12/18 10:33:03;;;;;;;20.15;13.63;;;;;;;;;;5005931;28;20042;-69
2021/12/18 10:35:51;;;;;;;19.13;12.02;;;;;;;;;;5013933;28;20030;-68
2021/12/18 10:38:38;;;;;;;18.40;12.45;;;;;;;;;;5008022;28;20033;-71
2021/12/18 10:41:28;;;;;;;17.65;11.15;;;;;;;;;;5009374;28;20018;-71
2021/12/18 10:44:13;;;;;;;17.30;11.63;;;;;;;;;;5016775;28;20076;-71
2021/12/18 10:46:59;;;;;;;21.08;12.50;;;;;;;;;;5001297;28;20154;-71
2021/12/18 10:49:44;;;;;;;18.15;11.10;;;;;;;;;;5012637;28;20080;-71
2021/12/18 10:52:37;;;;;;;19.65;12.77;;;;;;;;;;5034453;28;20136;-69
2021/12/18 10:55:26;;;;;;;18.73;12.40;;;;;;;;;;4997582;28;20481;-68
2021/12/18 10:58:16;;;;;;;17.08;11.25;;;;;;;;;;5003430;28;20013;-74
2021/12/18 11:01:12;;;;;;;19.30;11.63;;;;;;;;;;5012377;28;20085;-70
2021/12/18 11:03:58;;;;;;;22.83;12.75;;;;;;;;;;5009038;28;20030;-70
2021/12/18 11:06:43;;;;;;;20.92;12.57;;;;;;;;;;5017540;28;20045;-70
2021/12/18 11:09:34;;;;;;;18.95;11.88;;;;;;;;;;5012924;28;20022;-71
2021/12/18 11:15:25;;;;;;;19.42;12.18;;;;;;;;;;5008099;28;20018;-72
2021/12/18 11:18:10;;;;;;;18.15;10.95;;;;;;;;;;5014014;28;20082;-67
2021/12/18 11:20:55;;;;;;;20.25;11.82;;;;;;;;;;5011614;28;20057;-68
2021/12/18 11:23:48;;;;;;;17.90;10.82;;;;;;;;;;5016128;28;20048;-68
2021/12/18 11:26:34;;;;;;;16.23;9.70;;;;;;;;;;5016782;28;20460;-69
2021/12/18 11:29:21;;;;;;;18.45;10.40;;;;;;;;;;5010324;28;20015;-70
2021/12/18 11:32:14;;;;;;;18.80;11.55;;;;;;;;;;5029710;28;20135;-64
2021/12/18 11:35:03;;;;;;;18.27;10.90;;;;;;;;;;5015228;28;20469;-69
2021/12/18 11:38:02;;;;;;;16.63;10.95;;;;;;;;;;5013211;28;20042;-68
2021/12/18 11:40:49;;;;;;;16.70;10.82;;;;;;;;;;5006838;28;20120;-68
2021/12/18 11:43:35;;;;;;;17.17;10.63;;;;;;;;;;5023817;28;20043;-69
2021/12/18 11:46:29;;;;;;;18.48;11.15;;;;;;;;;;5012817;28;20657;-68
2021/12/18 11:49:14;;;;;;;14.50;10.15;;;;;;;;;;5006170;28;20045;-67
2021/12/18 11:52:02;;;;;;;18.17;12.20;;;;;;;;;;4995757;28;20034;-70
2021/12/18 11:54:55;;;;;;;19.15;12.10;;;;;;;;;;5011764;28;20153;-68
2021/12/18 11:57:51;;;;;;;20.65;11.45;;;;;;;;;;5034112;28;20496;-72
2021/12/18 12:00:38;;;;;;;16.90;11.15;;;;;;;;;;4996135;28;20480;-71
2021/12/18 12:03:37;;;;;;;15.70;9.73;;;;;;;;;;5021740;28;20030;-69
2021/12/18 12:06:27;;;;;;;16.42;10.25;;;;;;;;;;5014945;28;20056;-69
2021/12/18 12:12:10;;;;;;;22.17;12.35;;;;;;;;;;5003740;28;20041;-69
2021/12/18 12:15:11;;;;;;;17.38;11.32;;;;;;;;;;5022113;28;20087;-69
2021/12/18 12:17:59;;;;;;;17.05;10.82;;;;;;;;;;5015264;28;20033;-68
2021/12/18 12:20:51;;;;;;;16.77;11.80;;;;;;;;;;5015634;28;20022;-68
2021/12/18 12:23:56;;;;;;;17.48;11.32;;;;;;;;;;5017101;28;20079;-68
2021/12/18 12:26:41;;;;;;;16.67;10.90;;;;;;;;;;5017320;28;20033;-68
2021/12/18 12:29:43;;;;;;;16.60;10.98;;;;;;;;;;5020483;28;20025;-65
2021/12/18 12:32:29;;;;;;;18.48;10.95;;;;;;;;;;5017185;28;20504;-66
2021/12/18 12:35:14;;;;;;;18.10;12.00;;;;;;;;;;5030463;28;20022;-64
2021/12/18 12:38:00;;;;;;;17.23;11.13;;;;;;;;;;5025469;28;20087;-66
2021/12/18 12:40:45;;;;;;;16.38;11.13;;;;;;;;;;5012804;28;20103;-65
2021/12/18 12:43:38;;;;;;;18.23;11.32;;;;;;;;;;5023888;28;20025;-67
2021/12/18 12:46:24;;;;;;;20.23;11.73;;;;;;;;;;5026428;28;20038;-71
2021/12/18 12:49:15;;;;;;;16.45;11.02;;;;;;;;;;5011712;28;20041;-74
2021/12/18 12:52:03;;;;;;;17.58;10.80;;;;;;;;;;5007893;28;20062;-71
2021/12/18 12:54:52;;;;;;;17.60;11.30;;;;;;;;;;5016393;28;20416;-73
2021/12/18 12:57:39;;;;;;;18.80;11.63;;;;;;;;;;5003585;28;20030;-72
2021/12/18 13:00:24;;;;;;;16.08;11.32;;;;;;;;;;5033740;28;20513;-73
2021/12/18 13:03:11;;;;;;;19.40;11.65;;;;;;;;;;5019063;28;20065;-68
2021/12/18 13:05:59;;;;;;;18.30;11.50;;;;;;;;;;5021444;28;20107;-72
2021/12/18 13:08:46;;;;;;;17.58;11.68;;;;;;;;;;5001367;28;20029;-71
2021/12/18 13:11:33;;;;;;;19.23;12.90;;;;;;;;;;5021626;28;20037;-71
2021/12/18 13:14:21;;;;;;;18.92;11.63;;;;;;;;;;5012014;28;20588;-72
2021/12/18 13:17:15;;;;;;;21.08;12.15;;;;;;;;;;5017746;28;20067;-71
2021/12/18 13:20:04;;;;;;;19.33;11.30;;;;;;;;;;5019146;28;20477;-67
2021/12/18 13:22:53;;;;;;;19.35;12.70;;;;;;;;;;5021550;28;20021;-72
2021/12/18 13:25:48;;;;;;;17.95;12.05;;;;;;;;;;5012217;28;20045;-71
2021/12/18 13:28:34;;;;;;;20.58;11.90;;;;;;;;;;5008232;28;20501;-71
2021/12/18 13:31:22;;;;;;;18.33;11.30;;;;;;;;;;5005976;28;20033;-69
2021/12/18 13:34:09;;;;;;;19.80;12.40;;;;;;;;;;5015075;28;20038;-70
2021/12/18 13:36:54;;;;;;;22.92;13.02;;;;;;;;;;5013141;28;20057;-71
2021/12/18 13:39:41;;;;;;;21.90;13.25;;;;;;;;;;5014775;28;20559;-66
2021/12/18 13:42:26;;;;;;;20.15;13.50;;;;;;;;;;4999470;28;20284;-70
2021/12/18 13:45:11;;;;;;;19.67;13.65;;;;;;;;;;4994919;28;20042;-74
2021/12/18 13:48:01;;;;;;;20.33;13.60;;;;;;;;;;4998258;28;20022;-72
2021/12/18 13:50:53;;;;;;;19.67;12.13;;;;;;;;;;5028345;28;20615;-69
2021/12/18 13:53:58;;;;;;;20.80;14.25;;;;;;;;;;5020678;28;20121;-71
2021/12/18 13:56:45;;;;;;;21.58;13.02;;;;;;;;;;5017277;28;20027;-70
2021/12/18 13:59:31;;;;;;;20.95;13.50;;;;;;;;;;5023197;28;20052;-68
2021/12/18 14:02:20;;;;;;;19.88;13.32;;;;;;;;;;5011506;28;20034;-67
2021/12/18 14:05:06;;;;;;;20.50;14.18;;;;;;;;;;5005985;28;20123;-65
2021/12/18 14:07:52;;;;;;;22.20;14.20;;;;;;;;;;5017666;28;20030;-70
2021/12/18 14:10:39;;;;;;;20.75;13.18;;;;;;;;;;5053132;28;20037;-67
2021/12/18 14:13:24;;;;;;;23.17;13.30;;;;;;;;;;5002894;28;20092;-68
2021/12/18 14:16:09;;;;;;;23.25;13.98;;;;;;;;;;5017165;28;20141;-67
2021/12/18 14:19:07;;;;;;;18.67;12.82;;;;;;;;;;5022455;28;20488;-65
2021/12/18 14:21:52;;;;;;;22.65;12.93;;;;;;;;;;4999770;28;20080;-67
2021/12/18 14:24:40;;;;;;;18.13;11.95;;;;;;;;;;5008031;28;20061;-68
2021/12/18 14:27:36;;;;;;;20.98;12.40;;;;;;;;;;5007601;28;20038;-70
2021/12/18 14:30:26;;;;;;;21.75;12.52;;;;;;;;;;5013908;28;20445;-67
2021/12/18 14:33:14;;;;;;;20.05;12.85;;;;;;;;;;5024697;28;20168;-70
2021/12/18 14:35:59;;;;;;;21.90;14.23;;;;;;;;;;5007505;28;20436;-70
2021/12/18 14:38:55;;;;;;;25.20;13.57;;;;;;;;;;5012187;28;20034;-68
2021/12/18 14:41:50;;;;;;;22.45;13.30;;;;;;;;;;4999228;28;20083;-66
2021/12/18 14:44:41;;;;;;;25.25;14.05;;;;;;;;;;5014702;28;20018;-69
2021/12/18 14:47:33;;;;;;;20.92;14.02;;;;;;;;;;5009727;28;20029;-70
2021/12/18 14:50:25;;;;;;;20.90;14.07;;;;;;;;;;5010027;28;20026;-66
2021/12/18 14:53:15;;;;;;;20.52;13.15;;;;;;;;;;5012044;28;20461;-69
2021/12/18 14:56:00;;;;;;;18.40;12.13;;;;;;;;;;5025472;28;20117;-70
2021/12/18 14:58:46;;;;;;;19.65;13.10;;;;;;;;;;5001402;28;20087;-70
2021/12/18 15:01:31;;;;;;;21.30;13.93;;;;;;;;;;5012330;28;20029;-72
2021/12/18 15:04:20;;;;;;;22.15;13.40;;;;;;;;;;5012076;28;20113;-70
2021/12/18 15:07:24;;;;;;;20.00;12.80;;;;;;;;;;5034911;28;20041;-71
2021/12/18 15:10:10;;;;;;;21.45;13.82;;;;;;;;;;5007987;28;20041;-68
2021/12/18 15:12:55;;;;;;;19.33;12.23;;;;;;;;;;5032637;28;20034;-66
2021/12/18 15:15:44;;;;;;;20.58;13.50;;;;;;;;;;5027059;28;20022;-67
2021/12/18 15:18:29;;;;;;;20.80;13.70;;;;;;;;;;5024672;28;20108;-69
2021/12/18 15:21:17;;;;;;;19.92;12.73;;;;;;;;;;5016685;28;20033;-70
2021/12/18 15:24:03;;;;;;;21.58;12.68;;;;;;;;;;5013154;28;20034;-70
2021/12/18 15:26:50;;;;;;;18.13;12.43;;;;;;;;;;5006013;28;20061;-67
2021/12/18 15:29:37;;;;;;;19.70;12.70;;;;;;;;;;5027616;28;20033;-69
2021/12/18 15:32:23;;;;;;;18.35;12.02;;;;;;;;;;5017243;28;20020;-68
2021/12/18 15:35:08;;;;;;;18.40;12.45;;;;;;;;;;4999348;28;20266;-70
2021/12/18 15:37:54;;;;;;;18.42;12.57;;;;;;;;;;5035229;28;20017;-68
2021/12/18 15:40:39;;;;;;;17.55;11.80;;;;;;;;;;5014337;28;20479;-70
2021/12/18 15:43:25;;;;;;;20.80;14.40;;;;;;;;;;4989223;28;20030;-71
2021/12/18 15:46:10;;;;;;;20.65;12.68;;;;;;;;;;5016508;28;20030;-68
2021/12/18 15:48:56;;;;;;;19.85;13.25;;;;;;;;;;5039008;28;20025;-71
2021/12/18 15:51:42;;;;;;;21.48;14.40;;;;;;;;;;5019036;28;20029;-66
2021/12/18 15:54:27;;;;;;;20.52;14.00;;;;;;;;;;5020610;28;20682;-68
2021/12/18 15:57:15;;;;;;;19.92;13.02;;;;;;;;;;5013840;28;20026;-65
2021/12/18 16:00:00;;;;;;;20.73;14.35;;;;;;;;;;5012895;28;20096;-69
2021/12/18 16:02:46;;;;;;;20.75;13.75;;;;;;;;;;4987115;28;20036;-68
2021/12/18 16:05:31;;;;;;;20.58;14.02;;;;;;;;;;5010879;28;20386;-68
2021/12/18 16:08:17;;;;;;;26.77;16.75;;;;;;;;;;5013343;28;20084;-69
2021/12/18 16:11:04;;;;;;;26.92;19.23;;;;;;;;;;5024537;28;20037;-70
2021/12/18 16:13:49;;;;;;;21.15;14.68;;;;;;;;;;5009945;28;20657;-70
2021/12/18 16:16:34;;;;;;;23.02;15.38;;;;;;;;;;4996770;28;20053;-71
2021/12/18 16:19:19;;;;;;;23.45;15.52;;;;;;;;;;5015062;28;20034;-70
2021/12/18 16:22:07;;;;;;;23.60;16.27;;;;;;;;;;5010438;28;20037;-70
2021/12/18 16:24:53;;;;;;;28.27;17.45;;;;;;;;;;5015972;28;20030;-69
2021/12/18 16:27:38;;;;;;;36.55;22.02;;;;;;;;;;5029636;28;20036;-69
2021/12/18 16:30:24;;;;;;;36.15;24.08;;;;;;;;;;4995708;28;20033;-65
2021/12/18 16:33:09;;;;;;;27.55;18.98;;;;;;;;;;5012444;28;20120;-67
2021/12/18 16:35:55;;;;;;;32.28;19.05;;;;;;;;;;5017641;28;20458;-64
2021/12/18 16:38:40;;;;;;;28.65;17.85;;;;;;;;;;5020049;28;20083;-67
2021/12/18 16:41:26;;;;;;;28.73;17.25;;;;;;;;;;5035855;28;20084;-64
2021/12/18 16:44:11;;;;;;;24.98;17.13;;;;;;;;;;5009389;28;20527;-64
2021/12/18 16:46:56;;;;;;;27.83;17.65;;;;;;;;;;5003527;28;20431;-66
2021/12/18 16:49:54;;;;;;;27.92;18.10;;;;;;;;;;5020789;28;20376;-64
2021/12/18 16:52:39;;;;;;;27.05;18.30;;;;;;;;;;5010371;28;20047;-65
2021/12/18 16:55:25;;;;;;;70.78;45.35;;;;;;;;;;5031482;28;20026;-64
2021/12/18 16:58:10;;;;;;;34.17;23.05;;;;;;;;;;5019347;28;20034;-64
2021/12/18 17:00:58;;;;;;;33.40;20.75;;;;;;;;;;5003724;28;20025;-68
2021/12/18 17:03:44;;;;;;;28.25;20.38;;;;;;;;;;5019521;28;20061;-66
2021/12/18 17:06:29;;;;;;;31.60;21.50;;;;;;;;;;5006727;28;20034;-66
2021/12/18 17:09:14;;;;;;;31.55;19.52;;;;;;;;;;5019450;28;20025;-66